Time;durP1;ratioP1;P1;durP2;ratioP2;P2;SDS_P1;SDS_P2;PMS_P1;PMS_P2;Temp;Humidity;BMP_temperature;BMP_pressure;BME280_temperature;BME280_humidity;BME280_pressure;Samples;Min_cycle;Max_cycle;Signal;HPM_P1;HPM_P2
2023/10/05 00:01:02;;;;;;;6.27;1.90;;;;;;;9.84;77.07;96561.88;6156195;23;20229;-79
2023/10/05 00:03:28;;;;;;;4.53;1.67;;;;;;;9.78;77.24;96564.94;6180759;23;20146;-79
2023/10/05 00:06:03;;;;;;;4.83;1.70;;;;;;;9.85;76.85;96568.72;6181727;23;20182;-79
2023/10/05 00:08:28;;;;;;;3.70;1.67;;;;;;;9.86;76.42;96565.16;6157736;23;20236;-79
2023/10/05 00:10:54;;;;;;;3.20;1.50;;;;;;;9.80;76.93;96559.63;6157135;23;20747;-80
2023/10/05 00:13:19;;;;;;;3.33;1.70;;;;;;;9.87;76.79;96563.38;6155905;23;20258;-79
2023/10/05 00:15:45;;;;;;;2.63;1.57;;;;;;;9.97;76.30;96559.13;6183147;23;21017;-77
2023/10/05 00:18:14;;;;;;;4.43;1.90;;;;;;;9.85;76.85;96560.91;6157132;23;20656;-78
2023/10/05 00:20:41;;;;;;;3.33;1.70;;;;;;;9.93;76.88;96557.75;6181376;23;20158;-78
2023/10/05 00:23:10;;;;;;;4.13;1.67;;;;;;;9.80;76.54;96554.44;6155848;23;20179;-79
2023/10/05 00:25:37;;;;;;;4.13;1.70;;;;;;;9.91;76.59;96546.66;6180665;23;20353;-77
2023/10/05 00:28:09;;;;;;;4.57;1.97;;;;;;;9.94;76.17;96536.84;6156929;23;20161;-78
2023/10/05 00:30:35;;;;;;;7.43;1.90;;;;;;;9.79;76.69;96551.00;6158297;23;20170;-77
2023/10/05 00:33:00;;;;;;;4.80;1.73;;;;;;;9.84;76.71;96541.13;6155341;23;20166;-78
2023/10/05 00:35:28;;;;;;;4.00;1.77;;;;;;;9.80;76.71;96536.25;6182910;23;20261;-78
2023/10/05 00:37:57;;;;;;;3.17;1.60;;;;;;;9.75;76.84;96526.25;6206229;23;20181;-78
2023/10/05 00:40:36;;;;;;;3.87;2.20;;;;;;;9.79;76.51;96527.66;6181190;23;20150;-79
2023/10/05 00:43:06;;;;;;;5.10;1.80;;;;;;;9.84;76.48;96530.75;6158594;23;20361;-79
2023/10/05 00:45:33;;;;;;;8.73;1.90;;;;;;;9.88;76.24;96532.13;6181725;23;20182;-79
2023/10/05 00:48:09;;;;;;;4.13;2.50;;;;;;;9.97;76.28;96529.78;6157527;23;20250;-80
2023/10/05 00:50:36;;;;;;;4.27;1.80;;;;;;;9.96;75.74;96522.94;6181457;23;20181;-79
2023/10/05 00:53:01;;;;;;;5.67;1.60;;;;;;;10.09;75.33;96521.03;6156128;23;20211;-79
2023/10/05 00:55:27;;;;;;;3.00;2.17;;;;;;;10.00;75.71;96516.56;6181165;23;20183;-79
2023/10/05 00:57:54;;;;;;;3.37;1.67;;;;;;;10.16;75.06;96509.25;6156563;23;20159;-78
2023/10/05 01:00:28;;;;;;;6.17;1.87;;;;;;;10.16;74.93;96504.88;6180975;23;20165;-79
2023/10/05 01:06:26;;;;;;;4.53;1.80;;;;;;;10.17;75.01;96496.13;6062713;23;20181;-80
2023/10/05 01:08:59;;;;;;;3.07;1.50;;;;;;;10.14;74.92;96492.94;6163300;23;20273;-78
2023/10/05 01:11:42;;;;;;;4.90;1.53;;;;;;;10.15;75.10;96494.59;6179777;23;20197;-79
2023/10/05 01:14:08;;;;;;;6.70;1.77;;;;;;;10.11;75.10;96495.78;6181594;23;20151;-79
2023/10/05 01:16:34;;;;;;;5.00;1.50;;;;;;;10.13;75.13;96501.69;6157644;23;20290;-78
2023/10/05 01:19:07;;;;;;;5.37;1.30;;;;;;;10.08;75.17;96501.22;6157330;23;20260;-79
2023/10/05 01:21:34;;;;;;;9.53;2.03;;;;;;;10.09;75.13;96498.50;6163709;23;20190;-78
2023/10/05 01:23:59;;;;;;;6.37;1.40;;;;;;;10.17;74.98;96490.13;6181530;23;20657;-78
2023/10/05 01:26:24;;;;;;;3.90;1.57;;;;;;;10.20;74.54;96500.25;6182546;23;20170;-78
2023/10/05 01:28:50;;;;;;;4.23;1.63;;;;;;;10.13;75.05;96491.28;6157819;23;20194;-77
2023/10/05 01:31:16;;;;;;;2.77;1.33;;;;;;;10.11;74.71;96488.00;6182289;23;20150;-79
2023/10/05 01:33:46;;;;;;;3.17;1.40;;;;;;;10.06;75.33;96493.53;6181581;23;20162;-78
2023/10/05 01:36:11;;;;;;;3.47;1.53;;;;;;;10.10;75.54;96499.34;6181770;23;20532;-78
2023/10/05 01:38:40;;;;;;;8.30;1.80;;;;;;;10.00;75.89;96499.25;6157787;23;20170;-78
2023/10/05 01:41:06;;;;;;;10.57;2.73;;;;;;;9.96;76.08;96491.78;6183040;23;20147;-78
2023/10/05 01:43:34;;;;;;;5.87;1.87;;;;;;;10.11;75.75;96488.00;6206161;23;20154;-79
2023/10/05 01:45:59;;;;;;;4.63;1.83;;;;;;;10.11;75.07;96477.63;6182237;23;20241;-79
2023/10/05 01:48:28;;;;;;;4.70;1.63;;;;;;;10.13;74.81;96476.53;6157489;23;20163;-77
2023/10/05 01:50:56;;;;;;;5.77;2.10;;;;;;;9.98;75.82;96477.75;6158979;23;20159;-79
2023/10/05 01:53:22;;;;;;;4.50;1.87;;;;;;;10.05;75.93;96471.13;6206489;23;20155;-78
2023/10/05 01:55:49;;;;;;;3.70;1.93;;;;;;;9.99;75.99;96479.44;6181753;23;20301;-78
2023/10/05 01:58:31;;;;;;;3.33;1.57;;;;;;;10.05;75.93;96467.72;6157736;23;20161;-79
2023/10/05 02:00:56;;;;;;;3.40;1.90;;;;;;;9.96;76.18;96477.06;6182684;23;20139;-79
2023/10/05 02:03:25;;;;;;;5.00;1.77;;;;;;;9.98;76.19;96476.94;6156302;23;20182;-79
2023/10/05 02:05:53;;;;;;;4.87;2.00;;;;;;;9.90;76.20;96475.78;6182042;23;20166;-79
2023/10/05 02:08:20;;;;;;;6.10;2.20;;;;;;;9.97;76.42;96477.88;6184489;23;20157;-79
2023/10/05 02:10:47;;;;;;;5.37;1.97;;;;;;;9.93;76.43;96472.94;6157835;23;20205;-79
2023/10/05 02:13:13;;;;;;;3.63;1.80;;;;;;;9.93;76.43;96478.13;6157522;23;20162;-79
2023/10/05 02:15:41;;;;;;;3.27;2.00;;;;;;;9.85;76.81;96479.69;6207323;23;21013;-79
2023/10/05 02:18:13;;;;;;;5.17;2.10;;;;;;;9.85;76.74;96475.31;6184909;23;20185;-79
2023/10/05 02:20:44;;;;;;;3.13;1.80;;;;;;;9.96;76.05;96477.06;6183703;23;20157;-80
2023/10/05 02:23:44;;;;;;;4.03;2.03;;;;;;;9.92;76.29;96475.66;6157445;23;20158;-78
2023/10/05 02:26:07;;;;;;;6.00;1.90;;;;;;;9.90;76.57;96477.56;6175413;23;20182;-78
2023/10/05 02:28:33;;;;;;;3.00;1.53;;;;;;;9.91;76.58;96482.63;6206643;23;20131;-79
2023/10/05 02:31:00;;;;;;;3.83;2.17;;;;;;;9.84;76.88;96471.06;6203521;23;20143;-77
2023/10/05 02:33:31;;;;;;;4.40;2.00;;;;;;;9.91;76.78;96467.06;6185834;23;20226;-78
2023/10/05 02:36:03;;;;;;;7.20;2.13;;;;;;;9.99;76.89;96470.81;6236312;23;20209;-77
2023/10/05 02:38:29;;;;;;;6.00;1.97;;;;;;;9.86;77.09;96466.56;6188767;23;20360;-77
2023/10/05 02:41:03;;;;;;;6.60;1.67;;;;;;;9.98;76.49;96472.56;6212086;23;20147;-77
2023/10/05 02:43:28;;;;;;;8.43;2.17;;;;;;;10.00;76.62;96467.28;6211136;23;20186;-76
2023/10/05 02:45:58;;;;;;;5.90;1.67;;;;;;;10.07;76.58;96468.41;6210701;23;20166;-76
2023/10/05 02:48:24;;;;;;;5.13;2.03;;;;;;;10.07;76.30;96465.81;6218438;23;20139;-78
2023/10/05 02:50:51;;;;;;;4.33;1.93;;;;;;;9.98;77.06;96463.94;6159914;23;20167;-78
2023/10/05 02:53:18;;;;;;;4.60;1.87;;;;;;;9.99;77.00;96468.22;6183226;23;20837;-79
2023/10/05 02:55:51;;;;;;;5.10;1.80;;;;;;;10.17;76.33;96467.59;6157768;23;20186;-77
2023/10/05 02:58:16;;;;;;;4.93;2.17;;;;;;;10.07;76.81;96460.63;6159967;23;20147;-78
2023/10/05 03:00:44;;;;;;;4.03;1.87;;;;;;;10.11;76.35;96460.28;6158148;23;20185;-77
2023/10/05 03:03:12;;;;;;;7.07;1.70;;;;;;;10.09;76.77;96456.97;6157735;23;20166;-78
2023/10/05 03:05:42;;;;;;;3.33;1.80;;;;;;;10.20;76.89;96459.53;6181683;23;20182;-78
2023/10/05 03:08:09;;;;;;;5.07;2.03;;;;;;;10.23;76.56;96457.66;6182710;23;20573;-78
2023/10/05 03:10:34;;;;;;;5.60;2.50;;;;;;;10.17;76.61;96454.59;6182082;23;20169;-79
2023/10/05 03:13:01;;;;;;;6.47;1.80;;;;;;;10.24;76.37;96454.94;6181496;23;20189;-78
2023/10/05 03:15:28;;;;;;;4.10;2.07;;;;;;;10.21;76.37;96455.16;6181564;23;20185;-78
2023/10/05 03:17:56;;;;;;;3.00;1.50;;;;;;;10.31;76.20;96455.28;6181566;23;20159;-79
2023/10/05 03:20:23;;;;;;;4.47;2.03;;;;;;;10.29;76.28;96462.38;6157587;23;20171;-78
2023/10/05 03:22:48;;;;;;;5.73;2.03;;;;;;;10.28;76.24;96448.56;6181430;23;20154;-77
2023/10/05 03:25:16;;;;;;;3.57;1.87;;;;;;;10.31;76.26;96455.28;6157383;23;20232;-79
2023/10/05 03:27:41;;;;;;;4.17;1.97;;;;;;;10.30;76.18;96451.88;6156821;23;20173;-80
2023/10/05 03:30:13;;;;;;;5.47;2.10;;;;;;;10.34;76.20;96452.47;6181970;23;20151;-78
2023/10/05 03:32:40;;;;;;;5.67;1.97;;;;;;;10.23;76.18;96450.69;6181421;23;20142;-77
2023/10/05 03:35:08;;;;;;;4.37;1.90;;;;;;;10.42;75.65;96457.81;6156270;23;20193;-77
2023/10/05 03:37:34;;;;;;;5.20;1.80;;;;;;;10.25;76.19;96460.97;6181813;23;20173;-78
2023/10/05 03:42:27;;;;;;;4.57;2.07;;;;;;;10.37;75.97;96473.78;6181356;23;20159;-77
2023/10/05 03:45:09;;;;;;;4.03;2.00;;;;;;;10.40;75.42;96478.72;6181033;23;20529;-78
2023/10/05 03:47:37;;;;;;;7.17;2.40;;;;;;;10.34;75.64;96479.25;6203312;23;20135;-78
2023/10/05 03:50:04;;;;;;;5.57;1.80;;;;;;;10.36;75.95;96477.34;6182983;23;20150;-78
2023/10/05 03:52:29;;;;;;;6.53;2.00;;;;;;;10.35;75.77;96470.50;6207570;23;20190;-77
2023/10/05 03:55:09;;;;;;;5.37;2.90;;;;;;;10.33;75.70;96480.16;6158872;23;20618;-79
2023/10/05 03:57:34;;;;;;;5.30;1.90;;;;;;;10.29;76.18;96486.56;6184103;23;20158;-77
2023/10/05 04:00:15;;;;;;;6.63;2.00;;;;;;;10.40;75.72;96483.09;6183199;23;20642;-77
2023/10/05 04:02:41;;;;;;;4.20;2.07;;;;;;;10.31;75.92;96489.84;6167555;23;20146;-77
2023/10/05 04:05:10;;;;;;;3.57;1.87;;;;;;;10.38;75.99;96482.41;6177364;23;20179;-77
2023/10/05 04:07:35;;;;;;;6.77;2.20;;;;;;;10.33;76.11;96480.16;6229242;23;20150;-77
2023/10/05 04:10:02;;;;;;;2.87;1.60;;;;;;;10.42;75.77;96486.38;6204739;23;20154;-78
2023/10/05 04:12:32;;;;;;;4.67;1.90;;;;;;;10.30;76.33;96488.22;6187063;23;20540;-80
2023/10/05 04:14:57;;;;;;;7.07;2.20;;;;;;;10.34;75.73;96484.44;6183405;23;20289;-79
2023/10/05 04:17:22;;;;;;;3.43;1.73;;;;;;;10.38;75.82;96479.81;6158796;23;20174;-80
2023/10/05 04:19:52;;;;;;;6.00;2.43;;;;;;;10.40;75.79;96478.72;6182900;23;20155;-80
2023/10/05 04:22:17;;;;;;;6.80;2.60;;;;;;;10.44;75.41;96477.56;6159913;23;20245;-79
2023/10/05 04:24:44;;;;;;;4.47;1.90;;;;;;;10.46;75.86;96472.22;6157227;23;20169;-78
2023/10/05 04:27:10;;;;;;;3.90;1.80;;;;;;;10.47;75.52;96468.69;6160055;23;20158;-79
2023/10/05 04:29:37;;;;;;;6.63;2.17;;;;;;;10.38;75.67;96470.25;6183691;23;20158;-80
2023/10/05 04:32:03;;;;;;;5.47;2.20;;;;;;;10.47;75.60;96469.50;6158830;23;20241;-79
2023/10/05 04:34:30;;;;;;;7.00;1.97;;;;;;;10.48;75.61;96471.16;6182970;23;20155;-79
2023/10/05 04:36:57;;;;;;;3.50;2.10;;;;;;;10.48;75.25;96473.75;6185447;23;20194;-77
2023/10/05 04:39:30;;;;;;;5.17;1.90;;;;;;;10.38;75.80;96470.25;6182278;23;20189;-77
2023/10/05 04:42:11;;;;;;;4.03;2.20;;;;;;;10.37;75.84;96460.81;6158036;23;20147;-79
2023/10/05 04:44:37;;;;;;;4.87;1.80;;;;;;;10.37;75.92;96466.00;6185257;23;20165;-81
2023/10/05 04:47:04;;;;;;;6.03;2.10;;;;;;;10.33;76.16;96469.78;6159034;23;20179;-82
2023/10/05 04:49:30;;;;;;;4.87;2.27;;;;;;;10.46;75.72;96475.66;6184187;23;20162;-79
2023/10/05 04:51:57;;;;;;;5.10;1.93;;;;;;;10.39;75.99;96474.50;6183342;23;20153;-78
2023/10/05 04:54:25;;;;;;;4.27;2.73;;;;;;;10.35;76.01;96474.88;6157422;23;20158;-78
2023/10/05 04:56:54;;;;;;;4.00;2.20;;;;;;;10.39;75.95;96469.28;6210040;23;20178;-80
2023/10/05 05:02:12;;;;;;;6.57;2.30;;;;;;;10.36;76.08;96469.56;6185711;23;20549;-78
2023/10/05 05:07:12;;;;;;;5.13;2.20;;;;;;;10.40;76.13;96462.31;6182631;23;20181;-79
2023/10/05 05:09:42;;;;;;;5.83;2.43;;;;;;;10.43;76.08;96465.53;6157945;23;20162;-80
2023/10/05 05:12:09;;;;;;;10.87;2.80;;;;;;;10.42;76.02;96466.47;6184749;23;20325;-81
2023/10/05 05:14:41;;;;;;;11.27;3.70;;;;;;;10.42;76.30;96461.28;6210404;23;20151;-80
2023/10/05 05:17:06;;;;;;;5.00;2.70;;;;;;;10.52;75.94;96460.53;6184150;23;20502;-80
2023/10/05 05:19:34;;;;;;;10.53;3.20;;;;;;;10.52;76.07;96463.13;6184012;23;20159;-81
2023/10/05 05:22:02;;;;;;;7.13;3.03;;;;;;;10.57;75.64;96463.56;6210004;23;20155;-80
2023/10/05 05:24:30;;;;;;;8.57;3.27;;;;;;;10.57;75.98;96461.78;6212079;23;20162;-78
2023/10/05 05:27:11;;;;;;;6.87;2.83;;;;;;;10.58;75.90;96462.59;6212860;23;20163;-79
2023/10/05 05:29:36;;;;;;;4.70;2.43;;;;;;;10.60;75.92;96464.16;6191194;23;20138;-78
2023/10/05 05:32:13;;;;;;;7.33;2.83;;;;;;;10.55;76.10;96474.06;6187676;23;20178;-76
2023/10/05 05:34:41;;;;;;;3.77;2.40;;;;;;;10.53;76.08;96469.97;6188336;23;20165;-77
2023/10/05 05:39:53;;;;;;;9.27;2.87;;;;;;;10.54;76.41;96471.63;6210287;23;20142;-78
2023/10/05 05:42:18;;;;;;;4.97;2.33;;;;;;;10.61;75.59;96470.16;6184076;23;20171;-76
2023/10/05 05:44:44;;;;;;;7.10;2.80;;;;;;;10.57;76.07;96461.78;6183152;23;20209;-77
2023/10/05 05:47:10;;;;;;;7.53;2.87;;;;;;;10.59;76.12;96456.47;6183196;23;20251;-78
2023/10/05 05:49:45;;;;;;;6.17;2.37;;;;;;;10.63;76.07;96457.88;6182916;23;20163;-78
2023/10/05 05:52:11;;;;;;;9.10;2.90;;;;;;;10.64;76.30;96468.13;6183508;23;20157;-78
2023/10/05 05:54:37;;;;;;;6.77;2.87;;;;;;;10.51;76.60;96457.06;6183126;23;20225;-78
2023/10/05 05:57:12;;;;;;;8.73;3.20;;;;;;;10.63;75.72;96468.25;6158148;23;20211;-78
2023/10/05 05:59:39;;;;;;;4.87;2.83;;;;;;;10.56;76.35;96486.09;6181546;23;20157;-78
2023/10/05 06:02:08;;;;;;;6.53;2.60;;;;;;;10.50;76.42;96482.22;6180278;23;20155;-77
2023/10/05 06:04:40;;;;;;;6.60;2.73;;;;;;;10.63;75.97;96487.25;6205901;23;20151;-77
2023/10/05 06:07:13;;;;;;;7.27;2.93;;;;;;;10.70;75.87;96492.78;6182341;23;20586;-79
2023/10/05 06:09:43;;;;;;;5.53;2.63;;;;;;;10.75;75.63;96495.81;6176963;23;20182;-77
2023/10/05 06:12:11;;;;;;;9.67;2.80;;;;;;;10.74;75.65;96487.22;6205072;23;20258;-84
2023/10/05 06:14:39;;;;;;;8.47;2.97;;;;;;;10.88;75.30;96485.25;6165420;23;20402;-83
2023/10/05 06:17:04;;;;;;;7.33;3.20;;;;;;;10.92;74.95;96503.06;6190734;23;20154;-82
2023/10/05 06:19:29;;;;;;;9.20;3.30;;;;;;;10.95;74.98;96497.59;6181414;23;20610;-82
2023/10/05 06:21:55;;;;;;;6.47;3.20;;;;;;;10.99;74.69;96493.81;6182406;23;20170;-82
2023/10/05 06:24:20;;;;;;;7.80;3.23;;;;;;;11.04;74.63;96509.88;6156764;23;20502;-84
2023/10/05 06:26:45;;;;;;;10.23;3.17;;;;;;;11.06;74.29;96513.16;6158431;23;20241;-84
2023/10/05 06:29:13;;;;;;;7.37;2.97;;;;;;;11.14;74.33;96506.50;6156503;23;20162;-83
2023/10/05 06:31:40;;;;;;;8.93;3.30;;;;;;;11.19;74.03;96512.13;6182991;23;20162;-83
2023/10/05 06:34:09;;;;;;;7.90;2.97;;;;;;;11.40;73.52;96518.16;6156504;23;20629;-82
2023/10/05 06:36:42;;;;;;;7.03;3.13;;;;;;;11.62;72.97;96517.97;6158127;23;20190;-83
2023/10/05 06:39:09;;;;;;;9.57;2.80;;;;;;;11.76;72.44;96518.59;6182646;23;20151;-83
2023/10/05 06:41:36;;;;;;;7.17;3.07;;;;;;;11.90;71.84;96521.66;6156692;23;20582;-83
2023/10/05 06:44:02;;;;;;;7.53;3.47;;;;;;;11.97;72.09;96529.78;6156317;23;20610;-83
2023/10/05 06:46:28;;;;;;;5.87;2.83;;;;;;;11.93;71.33;96525.81;6184884;23;20194;-85
2023/10/05 06:48:54;;;;;;;7.73;3.57;;;;;;;11.99;71.87;96514.84;6160479;23;20217;-83
2023/10/05 06:51:27;;;;;;;9.60;3.20;;;;;;;11.96;71.89;96504.69;6161426;23;20170;-83
2023/10/05 06:53:57;;;;;;;8.30;3.43;;;;;;;12.15;71.43;96519.53;6183392;23;20221;-84
2023/10/05 06:56:23;;;;;;;9.77;3.47;;;;;;;12.32;71.13;96524.09;6184389;23;20273;-84
2023/10/05 06:58:48;;;;;;;7.43;3.20;;;;;;;12.42;71.13;96516.31;6185581;23;20159;-84
2023/10/05 07:01:14;;;;;;;7.93;3.20;;;;;;;12.47;70.97;96525.38;6186152;23;20161;-85
2023/10/05 07:03:40;;;;;;;8.33;3.00;;;;;;;12.55;70.60;96526.47;6185652;23;20169;-85
2023/10/05 07:06:05;;;;;;;7.97;3.47;;;;;;;12.60;70.19;96524.28;6160478;23;20589;-83
2023/10/05 07:08:32;;;;;;;7.43;3.40;;;;;;;12.69;70.11;96523.47;6162563;23;20169;-84
2023/10/05 07:10:57;;;;;;;12.63;4.27;;;;;;;12.65;70.78;96515.09;6186676;23;20162;-84
2023/10/05 07:13:24;;;;;;;8.90;3.20;;;;;;;12.81;69.99;96521.53;6160884;23;20166;-83
2023/10/05 07:15:49;;;;;;;11.47;3.60;;;;;;;13.02;69.56;96537.88;6185323;23;20193;-83
2023/10/05 07:18:17;;;;;;;8.30;3.77;;;;;;;13.14;69.42;96535.91;6160269;23;20683;-83
2023/10/05 07:20:43;;;;;;;7.67;3.80;;;;;;;13.33;68.92;96541.97;6160715;23;20186;-84
2023/10/05 07:23:08;;;;;;;12.00;3.60;;;;;;;13.51;68.63;96549.88;6183341;23;20209;-83
2023/10/05 07:25:34;;;;;;;7.47;3.97;;;;;;;13.58;67.90;96552.75;6158913;23;20174;-84
2023/10/05 07:27:59;;;;;;;9.20;3.80;;;;;;;13.60;67.64;96556.03;6185616;23;20163;-85
2023/10/05 07:30:25;;;;;;;12.77;3.90;;;;;;;13.56;66.90;96549.47;6160648;23;20159;-84
2023/10/05 07:32:50;;;;;;;11.40;4.13;;;;;;;13.78;66.68;96559.59;6158653;23;20162;-84
2023/10/05 07:35:15;;;;;;;8.23;4.07;;;;;;;13.94;66.05;96561.56;6160490;23;20218;-83
2023/10/05 07:37:41;;;;;;;8.10;3.70;;;;;;;14.11;66.00;96552.16;6186026;23;20618;-84
2023/10/05 07:40:09;;;;;;;11.00;4.20;;;;;;;14.18;65.39;96556.66;6184563;23;20154;-84
2023/10/05 07:42:37;;;;;;;10.30;4.13;;;;;;;14.22;65.18;96565.00;6159638;23;20212;-85
2023/10/05 07:45:07;;;;;;;11.67;4.13;;;;;;;14.34;64.71;96561.25;6158809;23;20744;-83
2023/10/05 07:47:32;;;;;;;11.07;4.43;;;;;;;14.03;64.51;96552.03;6159390;23;20158;-84
2023/10/05 07:49:57;;;;;;;10.93;4.20;;;;;;;14.18;65.06;96561.88;6159839;23;20158;-84
2023/10/05 07:52:23;;;;;;;11.20;3.90;;;;;;;14.26;64.82;96555.09;6160866;23;20657;-82
2023/10/05 07:54:48;;;;;;;8.43;4.00;;;;;;;14.38;64.33;96559.97;6182490;23;20158;-82
2023/10/05 07:57:14;;;;;;;11.10;4.27;;;;;;;14.31;63.25;96564.16;6161494;23;20164;-84
2023/10/05 07:59:43;;;;;;;10.77;4.37;;;;;;;14.41;64.02;96570.16;6156501;23;20167;-79
2023/10/05 08:02:10;;;;;;;8.00;3.73;;;;;;;14.52;63.19;96570.94;6155558;23;20185;-79
2023/10/05 08:04:36;;;;;;;8.00;3.80;;;;;;;14.72;63.26;96573.28;6155268;23;20170;-80
2023/10/05 08:07:02;;;;;;;9.07;4.10;;;;;;;14.90;62.47;96578.50;6155372;23;20171;-79
2023/10/05 08:09:29;;;;;;;11.33;4.17;;;;;;;14.98;62.46;96594.28;6180353;23;20672;-80
2023/10/05 08:11:56;;;;;;;13.00;4.47;;;;;;;15.00;61.06;96588.91;6157482;23;20234;-80
2023/10/05 08:14:22;;;;;;;8.77;3.90;;;;;;;15.11;61.61;96595.72;6158870;23;20162;-80
2023/10/05 08:16:50;;;;;;;11.23;4.10;;;;;;;15.12;61.39;96595.56;6156951;23;20272;-79
2023/10/05 08:19:16;;;;;;;12.33;4.77;;;;;;;15.13;60.97;96599.84;6156639;23;20190;-79
2023/10/05 08:21:42;;;;;;;11.07;5.40;;;;;;;15.11;61.12;96590.50;6156225;23;20544;-78
2023/10/05 08:24:07;;;;;;;10.80;4.80;;;;;;;15.23;60.26;96600.56;6179762;23;20159;-79
2023/10/05 08:26:33;;;;;;;10.35;4.25;;;;;;;15.04;60.57;96595.50;6180728;23;20175;-80
2023/10/05 08:28:59;;;;;;;12.77;3.93;;;;;;;15.00;60.93;96605.41;6156086;23;20165;-79
2023/10/05 08:31:25;;;;;;;13.30;4.53;;;;;;;15.23;60.86;96602.38;6156232;23;20154;-79
2023/10/05 08:33:54;;;;;;;11.85;4.00;;;;;;;15.12;61.03;96602.59;6180255;23;20228;-79
2023/10/05 08:36:20;;;;;;;8.03;3.90;;;;;;;15.03;61.48;96604.31;6205285;23;20240;-80
2023/10/05 08:38:49;;;;;;;11.10;3.57;;;;;;;15.07;60.27;96602.22;6156318;23;20166;-81
2023/10/05 08:41:32;;;;;;;8.63;3.88;;;;;;;14.95;60.38;96597.22;6157550;23;20159;-81
2023/10/05 08:43:59;;;;;;;10.13;4.35;;;;;;;15.09;60.73;96597.66;6205520;23;20754;-81
2023/10/05 08:46:26;;;;;;;11.37;4.13;;;;;;;15.08;59.62;96602.06;6206534;23;20174;-80
2023/10/05 08:48:52;;;;;;;9.67;4.03;;;;;;;14.93;60.19;96599.16;6180843;23;20165;-81
2023/10/05 08:51:17;;;;;;;13.83;4.40;;;;;;;14.99;59.62;96598.53;6181519;23;20154;-81
2023/10/05 08:53:50;;;;;;;10.57;4.72;;;;;;;15.32;59.65;96603.25;6180232;23;20166;-81
2023/10/05 08:56:16;;;;;;;10.50;4.07;;;;;;;15.41;59.89;96602.34;6156674;23;20213;-81
2023/10/05 08:58:45;;;;;;;11.30;4.70;;;;;;;15.41;59.01;96599.72;6180399;23;20194;-81
2023/10/05 09:01:30;;;;;;;8.25;3.72;;;;;;;15.69;58.49;96601.25;6206106;23;20471;-81
2023/10/05 09:04:23;;;;;;;14.80;4.40;;;;;;;15.79;58.70;96594.13;6179605;23;20569;-81
2023/10/05 09:07:08;;;;;;;13.90;4.68;;;;;;;15.89;58.25;96598.44;6180213;23;20226;-81
2023/10/05 09:09:39;;;;;;;9.60;3.95;;;;;;;16.06;58.72;96603.63;6157511;23;20210;-81
2023/10/05 09:12:35;;;;;;;14.40;4.75;;;;;;;16.36;57.63;96598.84;6155317;23;20171;-80
2023/10/05 09:15:18;;;;;;;11.48;4.50;;;;;;;16.34;57.15;96591.16;6203564;23;20191;-79
2023/10/05 09:17:56;;;;;;;10.73;4.78;;;;;;;16.08;55.84;96606.09;6180091;23;20237;-79
2023/10/05 09:20:30;;;;;;;16.15;4.82;;;;;;;15.68;57.24;96604.88;6179505;23;20163;-79
2023/10/05 09:22:56;;;;;;;16.95;4.72;;;;;;;15.89;57.72;96601.88;6179940;23;20154;-79
2023/10/05 09:25:28;;;;;;;9.73;4.07;;;;;;;15.86;58.13;96599.56;6178963;23;20178;-79
2023/10/05 09:27:55;;;;;;;12.68;4.63;;;;;;;16.05;57.02;96609.00;6157260;23;20191;-80
2023/10/05 09:30:22;;;;;;;9.85;4.13;;;;;;;15.70;59.30;96612.56;6155437;23;20159;-80
2023/10/05 09:32:48;;;;;;;11.95;4.43;;;;;;;15.75;59.12;96615.56;6180022;23;20165;-79
2023/10/05 09:35:31;;;;;;;10.15;4.70;;;;;;;15.83;58.49;96615.59;6205673;23;20217;-80
2023/10/05 09:38:00;;;;;;;11.30;4.00;;;;;;;15.90;58.48;96619.22;6182479;23;20220;-80
2023/10/05 09:40:28;;;;;;;12.05;4.43;;;;;;;15.87;58.40;96614.31;6206843;23;20178;-79
2023/10/05 09:42:59;;;;;;;15.35;4.60;;;;;;;16.19;57.05;96623.34;6157075;23;20506;-79
2023/10/05 09:45:27;;;;;;;11.98;3.97;;;;;;;16.03;57.52;96618.84;6206160;23;20491;-79
2023/10/05 09:47:54;;;;;;;11.88;3.75;;;;;;;15.89;59.10;96611.53;6182480;23;20533;-79
2023/10/05 09:50:21;;;;;;;11.48;4.25;;;;;;;16.20;57.73;96622.38;6182145;23;20162;-80
2023/10/05 09:52:48;;;;;;;11.80;4.30;;;;;;;16.28;58.17;96631.09;6181392;23;20190;-80
2023/10/05 09:55:21;;;;;;;15.25;4.35;;;;;;;16.44;57.18;96622.47;6157212;23;20294;-80
2023/10/05 09:57:51;;;;;;;11.32;4.10;;;;;;;16.56;57.01;96615.97;6182106;23;20154;-79
2023/10/05 10:03:01;;;;;;;9.18;3.80;;;;;;;16.54;57.51;96614.50;6181512;23;20545;-79
2023/10/05 10:05:37;;;;;;;6.45;3.50;;;;;;;16.40;57.87;96621.13;6183261;23;20269;-79
2023/10/05 10:08:12;;;;;;;12.52;4.80;;;;;;;16.49;57.51;96617.56;6156571;23;20564;-80
2023/10/05 10:10:40;;;;;;;8.98;3.78;;;;;;;16.57;57.55;96628.09;6157049;23;20237;-80
2023/10/05 10:13:11;;;;;;;7.30;3.25;;;;;;;16.80;55.81;96612.63;6156634;23;20165;-80
2023/10/05 10:15:45;;;;;;;10.13;4.25;;;;;;;16.40;57.81;96621.97;6183212;23;20182;-78
2023/10/05 10:18:16;;;;;;;9.88;4.22;;;;;;;16.64;57.12;96621.25;6158117;23;20162;-78
2023/10/05 10:20:46;;;;;;;13.95;3.92;;;;;;;16.38;55.66;96630.97;6200264;23;20194;-77
2023/10/05 10:23:18;;;;;;;12.73;3.80;;;;;;;16.40;56.36;96631.63;6204381;23;20606;-79
2023/10/05 10:25:45;;;;;;;14.38;4.00;;;;;;;16.37;56.31;96626.72;6180207;23;20249;-79
2023/10/05 10:28:20;;;;;;;7.20;3.50;;;;;;;16.59;55.78;96631.38;6155160;23;20166;-78
2023/10/05 10:31:11;;;;;;;8.18;3.33;;;;;;;16.74;55.25;96633.44;6205256;23;20180;-78
2023/10/05 10:33:40;;;;;;;9.13;3.60;;;;;;;17.00;54.80;96626.28;6179423;23;20165;-78
2023/10/05 10:36:18;;;;;;;11.38;3.95;;;;;;;16.97;54.21;96629.25;6156539;23;20669;-83
2023/10/05 10:38:44;;;;;;;7.85;3.35;;;;;;;16.89;54.30;96632.66;6160367;23;20626;-85
2023/10/05 10:41:10;;;;;;;8.00;3.97;;;;;;;16.86;52.61;96626.91;6160627;23;20173;-83
2023/10/05 10:43:37;;;;;;;7.07;3.10;;;;;;;16.90;52.92;96618.56;6157971;23;20237;-81
2023/10/05 10:46:14;;;;;;;10.50;3.67;;;;;;;16.87;53.01;96620.66;6183325;23;20175;-82
2023/10/05 10:48:53;;;;;;;9.60;4.35;;;;;;;17.30;53.03;96611.72;6182803;23;20139;-82
2023/10/05 10:51:21;;;;;;;10.23;3.97;;;;;;;17.23;52.07;96614.19;6182412;23;20158;-82
2023/10/05 10:53:52;;;;;;;6.40;3.45;;;;;;;17.27;50.86;96615.50;6181358;23;20165;-82
2023/10/05 10:56:22;;;;;;;11.52;3.92;;;;;;;17.12;51.27;96619.72;6182379;23;20488;-82
2023/10/05 10:58:56;;;;;;;8.80;3.65;;;;;;;17.04;51.88;96616.28;6182432;23;20185;-83
2023/10/05 11:01:41;;;;;;;7.50;3.25;;;;;;;17.14;51.11;96609.06;6182071;23;20480;-82
2023/10/05 11:04:23;;;;;;;6.50;3.22;;;;;;;17.53;51.02;96614.50;6160718;23;20166;-82
2023/10/05 11:06:50;;;;;;;9.73;3.70;;;;;;;17.56;51.07;96633.38;6161591;23;20185;-82
2023/10/05 11:09:16;;;;;;;11.40;3.40;;;;;;;17.32;51.74;96627.31;6156749;23;20159;-82
2023/10/05 11:11:43;;;;;;;11.00;3.58;;;;;;;17.25;51.94;96627.16;6183069;23;20158;-83
2023/10/05 11:14:21;;;;;;;8.38;3.50;;;;;;;17.40;52.35;96628.13;6160284;23;20538;-84
2023/10/05 11:16:49;;;;;;;7.72;3.40;;;;;;;17.64;50.58;96615.97;6186500;23;20178;-83
2023/10/05 11:19:24;;;;;;;13.15;4.15;;;;;;;17.37;50.54;96607.44;6162977;23;20167;-83
2023/10/05 11:21:49;;;;;;;6.97;3.10;;;;;;;17.74;49.92;96617.47;6163957;23;20260;-86
2023/10/05 11:24:18;;;;;;;11.75;3.38;;;;;;;17.74;50.22;96620.09;6157475;23;20165;-78
2023/10/05 11:29:29;;;;;;;9.18;4.00;;;;;;;17.62;49.52;96613.53;6180785;23;20198;-76
2023/10/05 11:32:01;;;;;;;8.82;4.10;;;;;;;17.83;50.60;96605.97;6204970;23;20591;-79
2023/10/05 11:34:29;;;;;;;8.02;3.60;;;;;;;18.05;50.09;96616.78;6179977;23;20154;-77
2023/10/05 11:36:59;;;;;;;7.43;3.35;;;;;;;17.77;50.91;96622.41;6207397;23;20522;-78
2023/10/05 11:39:27;;;;;;;8.65;3.25;;;;;;;18.13;50.20;96613.31;6205927;23;20182;-78
2023/10/05 11:41:57;;;;;;;8.98;3.85;;;;;;;17.93;50.81;96616.28;6156377;23;20158;-78
2023/10/05 11:44:24;;;;;;;7.43;3.53;;;;;;;18.15;50.04;96609.53;6204331;23;20135;-79
2023/10/05 11:46:53;;;;;;;10.60;3.75;;;;;;;18.23;50.18;96600.78;6179601;23;20185;-79
2023/10/05 11:49:20;;;;;;;9.18;3.88;;;;;;;18.28;50.01;96590.56;6180143;23;20607;-78
2023/10/05 11:52:00;;;;;;;9.93;3.90;;;;;;;18.13;48.89;96582.59;6205083;23;20230;-78
2023/10/05 11:54:32;;;;;;;8.40;3.47;;;;;;;18.33;49.21;96589.06;6157404;23;20510;-79
2023/10/05 11:56:59;;;;;;;7.05;4.25;;;;;;;17.97;49.55;96585.25;6179684;23;20232;-79
2023/10/05 11:59:28;;;;;;;9.30;3.55;;;;;;;18.31;48.72;96606.84;6180787;23;20230;-79